sensor_id;sensor_type;location;lat;lon;timestamp;P1;durP1;ratioP1;P2;durP2;ratioP2
53062;SDS011;40529;52.172;10.548;2022-07-23T00:00:33;11.18;;;9.25;;
53062;SDS011;40529;52.172;10.548;2022-07-23T00:02:59;12.88;;;8.73;;
53062;SDS011;40529;52.172;10.548;2022-07-23T00:05:25;9.70;;;8.30;;
53062;SDS011;40529;52.172;10.548;2022-07-23T00:07:51;11.38;;;9.18;;
53062;SDS011;40529;52.172;10.548;2022-07-23T00:10:17;9.07;;;8.07;;
53062;SDS011;40529;52.172;10.548;2022-07-23T00:12:43;10.35;;;8.40;;
53062;SDS011;40529;52.172;10.548;2022-07-23T00:15:09;10.98;;;8.98;;
53062;SDS011;40529;52.172;10.548;2022-07-23T00:17:35;9.85;;;8.23;;
53062;SDS011;40529;52.172;10.548;2022-07-23T00:20:02;10.93;;;8.27;;
53062;SDS011;40529;52.172;10.548;2022-07-23T00:22:28;11.10;;;8.07;;
53062;SDS011;40529;52.172;10.548;2022-07-23T00:24:55;11.65;;;9.10;;
53062;SDS011;40529;52.172;10.548;2022-07-23T00:27:21;9.93;;;8.02;;
53062;SDS011;40529;52.172;10.548;2022-07-23T00:29:47;11.40;;;8.30;;
53062;SDS011;40529;52.172;10.548;2022-07-23T00:32:13;10.32;;;8.10;;
53062;SDS011;40529;52.172;10.548;2022-07-23T00:34:39;11.52;;;8.23;;
53062;SDS011;40529;52.172;10.548;2022-07-23T00:37:05;9.85;;;8.35;;
53062;SDS011;40529;52.172;10.548;2022-07-23T00:39:31;9.98;;;8.05;;
53062;SDS011;40529;52.172;10.548;2022-07-23T00:41:57;10.18;;;8.18;;
53062;SDS011;40529;52.172;10.548;2022-07-23T00:44:24;12.77;;;9.10;;
53062;SDS011;40529;52.172;10.548;2022-07-23T00:46:52;9.73;;;7.80;;
53062;SDS011;40529;52.172;10.548;2022-07-23T00:49:22;12.15;;;8.30;;
53062;SDS011;40529;52.172;10.548;2022-07-23T00:51:49;9.38;;;6.82;;
53062;SDS011;40529;52.172;10.548;2022-07-23T00:54:18;9.10;;;6.90;;
53062;SDS011;40529;52.172;10.548;2022-07-23T00:56:45;10.65;;;7.68;;
53062;SDS011;40529;52.172;10.548;2022-07-23T00:59:11;8.57;;;6.90;;
53062;SDS011;40529;52.172;10.548;2022-07-23T01:01:38;8.35;;;6.70;;
53062;SDS011;40529;52.172;10.548;2022-07-23T01:04:04;10.75;;;7.05;;
53062;SDS011;40529;52.172;10.548;2022-07-23T01:06:31;10.90;;;6.88;;
53062;SDS011;40529;52.172;10.548;2022-07-23T01:08:59;7.53;;;6.45;;
53062;SDS011;40529;52.172;10.548;2022-07-23T01:11:25;9.85;;;6.63;;
53062;SDS011;40529;52.172;10.548;2022-07-23T01:13:51;13.40;;;7.85;;
53062;SDS011;40529;52.172;10.548;2022-07-23T01:16:18;9.80;;;7.07;;
53062;SDS011;40529;52.172;10.548;2022-07-23T01:18:44;12.68;;;7.50;;
53062;SDS011;40529;52.172;10.548;2022-07-23T01:21:11;13.63;;;7.65;;
53062;SDS011;40529;52.172;10.548;2022-07-23T01:26:06;11.32;;;7.03;;
53062;SDS011;40529;52.172;10.548;2022-07-23T01:28:32;10.98;;;7.10;;
53062;SDS011;40529;52.172;10.548;2022-07-23T01:30:58;10.32;;;6.80;;
53062;SDS011;40529;52.172;10.548;2022-07-23T01:33:25;9.55;;;6.85;;
53062;SDS011;40529;52.172;10.548;2022-07-23T01:35:51;14.75;;;7.43;;
53062;SDS011;40529;52.172;10.548;2022-07-23T01:38:17;12.70;;;7.60;;
53062;SDS011;40529;52.172;10.548;2022-07-23T01:40:43;12.10;;;7.05;;
53062;SDS011;40529;52.172;10.548;2022-07-23T01:43:09;10.50;;;7.00;;
53062;SDS011;40529;52.172;10.548;2022-07-23T01:45:35;10.93;;;7.95;;
53062;SDS011;40529;52.172;10.548;2022-07-23T01:48:01;11.30;;;7.00;;
53062;SDS011;40529;52.172;10.548;2022-07-23T01:50:27;13.93;;;8.43;;
53062;SDS011;40529;52.172;10.548;2022-07-23T01:52:53;11.25;;;8.27;;
53062;SDS011;40529;52.172;10.548;2022-07-23T01:55:19;15.35;;;8.52;;
53062;SDS011;40529;52.172;10.548;2022-07-23T01:57:45;14.20;;;8.35;;
53062;SDS011;40529;52.172;10.548;2022-07-23T02:00:11;16.88;;;9.43;;
53062;SDS011;40529;52.172;10.548;2022-07-23T02:02:37;15.45;;;8.43;;
53062;SDS011;40529;52.172;10.548;2022-07-23T02:05:03;15.05;;;9.02;;
53062;SDS011;40529;52.172;10.548;2022-07-23T02:07:29;15.90;;;9.35;;
53062;SDS011;40529;52.172;10.548;2022-07-23T02:09:55;14.52;;;9.55;;
53062;SDS011;40529;52.172;10.548;2022-07-23T02:12:21;18.60;;;10.00;;
53062;SDS011;40529;52.172;10.548;2022-07-23T02:14:47;18.02;;;10.38;;
53062;SDS011;40529;52.172;10.548;2022-07-23T02:17:13;14.43;;;9.73;;
53062;SDS011;40529;52.172;10.548;2022-07-23T02:19:39;16.00;;;9.98;;
53062;SDS011;40529;52.172;10.548;2022-07-23T02:22:05;13.88;;;9.30;;
53062;SDS011;40529;52.172;10.548;2022-07-23T02:24:31;14.82;;;8.65;;
53062;SDS011;40529;52.172;10.548;2022-07-23T02:26:57;12.15;;;8.73;;
53062;SDS011;40529;52.172;10.548;2022-07-23T02:29:24;12.00;;;8.30;;
53062;SDS011;40529;52.172;10.548;2022-07-23T02:31:50;14.95;;;8.68;;
53062;SDS011;40529;52.172;10.548;2022-07-23T02:34:16;11.07;;;8.40;;
53062;SDS011;40529;52.172;10.548;2022-07-23T02:36:42;14.63;;;8.90;;
53062;SDS011;40529;52.172;10.548;2022-07-23T02:39:08;14.30;;;9.70;;
53062;SDS011;40529;52.172;10.548;2022-07-23T02:41:34;15.07;;;9.48;;
53062;SDS011;40529;52.172;10.548;2022-07-23T02:44:00;13.45;;;9.02;;
53062;SDS011;40529;52.172;10.548;2022-07-23T02:46:26;13.38;;;9.15;;
53062;SDS011;40529;52.172;10.548;2022-07-23T02:48:53;14.73;;;9.88;;
53062;SDS011;40529;52.172;10.548;2022-07-23T02:51:18;20.60;;;11.05;;
53062;SDS011;40529;52.172;10.548;2022-07-23T02:53:44;15.80;;;10.95;;
53062;SDS011;40529;52.172;10.548;2022-07-23T02:56:11;19.38;;;11.23;;
53062;SDS011;40529;52.172;10.548;2022-07-23T02:58:37;11.77;;;9.35;;
53062;SDS011;40529;52.172;10.548;2022-07-23T03:01:03;15.43;;;10.27;;
53062;SDS011;40529;52.172;10.548;2022-07-23T03:03:29;17.55;;;10.30;;
53062;SDS011;40529;52.172;10.548;2022-07-23T03:05:55;15.23;;;10.75;;
53062;SDS011;40529;52.172;10.548;2022-07-23T03:08:21;14.07;;;10.55;;
53062;SDS011;40529;52.172;10.548;2022-07-23T03:10:47;17.73;;;11.02;;
53062;SDS011;40529;52.172;10.548;2022-07-23T03:13:12;17.75;;;10.25;;
53062;SDS011;40529;52.172;10.548;2022-07-23T03:15:38;17.40;;;11.40;;
53062;SDS011;40529;52.172;10.548;2022-07-23T03:18:04;18.33;;;11.35;;
53062;SDS011;40529;52.172;10.548;2022-07-23T03:20:30;16.45;;;10.60;;
53062;SDS011;40529;52.172;10.548;2022-07-23T03:22:56;15.98;;;10.57;;
53062;SDS011;40529;52.172;10.548;2022-07-23T03:25:22;13.68;;;9.82;;
53062;SDS011;40529;52.172;10.548;2022-07-23T03:27:49;21.13;;;11.02;;
53062;SDS011;40529;52.172;10.548;2022-07-23T03:30:15;19.15;;;11.20;;
53062;SDS011;40529;52.172;10.548;2022-07-23T03:32:41;15.65;;;11.00;;
53062;SDS011;40529;52.172;10.548;2022-07-23T03:35:07;18.00;;;10.57;;
53062;SDS011;40529;52.172;10.548;2022-07-23T03:37:33;17.90;;;11.07;;
53062;SDS011;40529;52.172;10.548;2022-07-23T03:39:59;15.65;;;11.07;;
53062;SDS011;40529;52.172;10.548;2022-07-23T03:42:25;17.83;;;11.23;;
53062;SDS011;40529;52.172;10.548;2022-07-23T03:44:51;15.73;;;10.55;;
53062;SDS011;40529;52.172;10.548;2022-07-23T03:47:17;17.25;;;10.48;;
53062;SDS011;40529;52.172;10.548;2022-07-23T03:49:46;11.25;;;7.38;;
53062;SDS011;40529;52.172;10.548;2022-07-23T03:52:13;15.05;;;9.85;;
53062;SDS011;40529;52.172;10.548;2022-07-23T03:54:39;15.90;;;9.73;;
53062;SDS011;40529;52.172;10.548;2022-07-23T03:57:05;14.32;;;9.32;;
53062;SDS011;40529;52.172;10.548;2022-07-23T03:59:31;15.60;;;10.25;;
53062;SDS011;40529;52.172;10.548;2022-07-23T04:01:57;16.83;;;10.27;;
53062;SDS011;40529;52.172;10.548;2022-07-23T04:04:23;14.88;;;10.05;;
53062;SDS011;40529;52.172;10.548;2022-07-23T04:06:49;15.05;;;8.95;;
53062;SDS011;40529;52.172;10.548;2022-07-23T04:09:15;11.90;;;8.40;;
53062;SDS011;40529;52.172;10.548;2022-07-23T04:11:41;11.52;;;8.55;;
53062;SDS011;40529;52.172;10.548;2022-07-23T04:14:07;15.00;;;8.02;;
53062;SDS011;40529;52.172;10.548;2022-07-23T04:16:33;13.57;;;8.25;;
53062;SDS011;40529;52.172;10.548;2022-07-23T04:18:59;13.40;;;8.55;;
53062;SDS011;40529;52.172;10.548;2022-07-23T04:21:25;12.25;;;8.68;;
53062;SDS011;40529;52.172;10.548;2022-07-23T04:23:51;13.75;;;9.48;;
53062;SDS011;40529;52.172;10.548;2022-07-23T04:26:17;14.68;;;9.73;;
53062;SDS011;40529;52.172;10.548;2022-07-23T04:28:43;16.02;;;9.70;;
53062;SDS011;40529;52.172;10.548;2022-07-23T04:31:09;16.33;;;9.30;;
53062;SDS011;40529;52.172;10.548;2022-07-23T04:33:35;14.95;;;9.27;;
53062;SDS011;40529;52.172;10.548;2022-07-23T04:36:01;13.15;;;8.48;;
53062;SDS011;40529;52.172;10.548;2022-07-23T04:38:27;16.85;;;10.27;;
53062;SDS011;40529;52.172;10.548;2022-07-23T04:40:53;15.65;;;9.35;;
53062;SDS011;40529;52.172;10.548;2022-07-23T04:43:19;13.45;;;9.45;;
53062;SDS011;40529;52.172;10.548;2022-07-23T04:45:45;13.13;;;9.07;;
53062;SDS011;40529;52.172;10.548;2022-07-23T04:48:11;15.13;;;9.68;;
53062;SDS011;40529;52.172;10.548;2022-07-23T04:50:37;16.10;;;10.50;;
53062;SDS011;40529;52.172;10.548;2022-07-23T04:53:03;15.10;;;10.40;;
53062;SDS011;40529;52.172;10.548;2022-07-23T04:55:29;19.65;;;10.43;;
53062;SDS011;40529;52.172;10.548;2022-07-23T04:57:55;17.77;;;10.07;;
53062;SDS011;40529;52.172;10.548;2022-07-23T05:00:21;13.93;;;10.00;;
53062;SDS011;40529;52.172;10.548;2022-07-23T05:02:47;14.38;;;9.98;;
53062;SDS011;40529;52.172;10.548;2022-07-23T05:05:13;17.38;;;10.07;;
53062;SDS011;40529;52.172;10.548;2022-07-23T05:07:39;15.13;;;9.85;;
53062;SDS011;40529;52.172;10.548;2022-07-23T05:10:05;20.35;;;10.32;;
53062;SDS011;40529;52.172;10.548;2022-07-23T05:12:31;12.43;;;9.02;;
53062;SDS011;40529;52.172;10.548;2022-07-23T05:14:58;15.15;;;10.23;;
53062;SDS011;40529;52.172;10.548;2022-07-23T05:17:24;14.45;;;9.10;;
53062;SDS011;40529;52.172;10.548;2022-07-23T05:19:50;18.38;;;9.77;;
53062;SDS011;40529;52.172;10.548;2022-07-23T05:22:16;13.52;;;8.77;;
53062;SDS011;40529;52.172;10.548;2022-07-23T05:24:42;13.45;;;9.05;;
53062;SDS011;40529;52.172;10.548;2022-07-23T05:27:08;13.07;;;10.00;;
53062;SDS011;40529;52.172;10.548;2022-07-23T05:29:34;16.55;;;10.57;;
53062;SDS011;40529;52.172;10.548;2022-07-23T05:32:00;20.20;;;10.85;;
53062;SDS011;40529;52.172;10.548;2022-07-23T05:34:26;18.60;;;10.05;;
53062;SDS011;40529;52.172;10.548;2022-07-23T05:36:52;17.75;;;11.40;;
53062;SDS011;40529;52.172;10.548;2022-07-23T05:39:18;16.98;;;10.55;;
53062;SDS011;40529;52.172;10.548;2022-07-23T05:41:44;16.75;;;11.15;;
53062;SDS011;40529;52.172;10.548;2022-07-23T05:44:10;17.35;;;10.55;;
53062;SDS011;40529;52.172;10.548;2022-07-23T05:46:36;18.58;;;10.80;;
53062;SDS011;40529;52.172;10.548;2022-07-23T05:49:02;16.77;;;10.75;;
53062;SDS011;40529;52.172;10.548;2022-07-23T05:51:28;15.45;;;10.25;;
53062;SDS011;40529;52.172;10.548;2022-07-23T05:53:54;12.90;;;10.05;;
53062;SDS011;40529;52.172;10.548;2022-07-23T05:56:20;14.43;;;10.55;;
53062;SDS011;40529;52.172;10.548;2022-07-23T05:58:46;16.38;;;9.95;;
53062;SDS011;40529;52.172;10.548;2022-07-23T06:01:12;18.02;;;11.05;;
53062;SDS011;40529;52.172;10.548;2022-07-23T06:03:38;17.80;;;10.93;;
53062;SDS011;40529;52.172;10.548;2022-07-23T06:06:04;18.60;;;10.95;;
53062;SDS011;40529;52.172;10.548;2022-07-23T06:08:30;18.73;;;11.10;;
53062;SDS011;40529;52.172;10.548;2022-07-23T06:10:56;17.73;;;10.80;;
53062;SDS011;40529;52.172;10.548;2022-07-23T06:13:22;14.65;;;9.93;;
53062;SDS011;40529;52.172;10.548;2022-07-23T06:15:49;14.30;;;9.88;;
53062;SDS011;40529;52.172;10.548;2022-07-23T06:18:15;16.00;;;9.15;;
53062;SDS011;40529;52.172;10.548;2022-07-23T06:20:40;15.32;;;9.60;;
53062;SDS011;40529;52.172;10.548;2022-07-23T06:23:06;17.60;;;9.13;;
53062;SDS011;40529;52.172;10.548;2022-07-23T06:25:33;11.30;;;8.05;;
53062;SDS011;40529;52.172;10.548;2022-07-23T06:27:58;13.95;;;9.10;;
53062;SDS011;40529;52.172;10.548;2022-07-23T06:30:25;12.88;;;9.90;;
53062;SDS011;40529;52.172;10.548;2022-07-23T06:32:51;12.52;;;8.90;;
53062;SDS011;40529;52.172;10.548;2022-07-23T06:35:17;14.07;;;9.70;;
53062;SDS011;40529;52.172;10.548;2022-07-23T06:37:43;13.77;;;10.05;;
53062;SDS011;40529;52.172;10.548;2022-07-23T06:40:09;15.18;;;9.93;;
53062;SDS011;40529;52.172;10.548;2022-07-23T06:42:35;14.52;;;9.32;;
53062;SDS011;40529;52.172;10.548;2022-07-23T06:45:04;15.70;;;10.13;;
53062;SDS011;40529;52.172;10.548;2022-07-23T06:47:30;14.05;;;10.60;;
53062;SDS011;40529;52.172;10.548;2022-07-23T06:49:56;14.75;;;10.05;;
53062;SDS011;40529;52.172;10.548;2022-07-23T06:52:22;14.02;;;8.98;;
53062;SDS011;40529;52.172;10.548;2022-07-23T06:54:48;13.32;;;9.35;;
53062;SDS011;40529;52.172;10.548;2022-07-23T06:57:14;12.02;;;8.98;;
53062;SDS011;40529;52.172;10.548;2022-07-23T06:59:40;13.32;;;9.70;;
53062;SDS011;40529;52.172;10.548;2022-07-23T07:02:06;15.98;;;9.25;;
53062;SDS011;40529;52.172;10.548;2022-07-23T07:04:33;12.63;;;8.85;;
53062;SDS011;40529;52.172;10.548;2022-07-23T07:06:59;13.30;;;9.05;;
53062;SDS011;40529;52.172;10.548;2022-07-23T07:09:25;13.95;;;9.13;;
53062;SDS011;40529;52.172;10.548;2022-07-23T07:11:51;13.38;;;8.75;;
53062;SDS011;40529;52.172;10.548;2022-07-23T07:14:17;13.77;;;8.13;;
53062;SDS011;40529;52.172;10.548;2022-07-23T07:16:43;12.80;;;7.57;;
53062;SDS011;40529;52.172;10.548;2022-07-23T07:19:09;9.65;;;7.18;;
53062;SDS011;40529;52.172;10.548;2022-07-23T07:21:35;13.57;;;7.78;;
53062;SDS011;40529;52.172;10.548;2022-07-23T07:24:01;14.13;;;8.23;;
53062;SDS011;40529;52.172;10.548;2022-07-23T07:26:27;13.48;;;7.50;;
53062;SDS011;40529;52.172;10.548;2022-07-23T07:28:54;10.23;;;8.23;;
53062;SDS011;40529;52.172;10.548;2022-07-23T07:31:20;12.90;;;8.05;;
53062;SDS011;40529;52.172;10.548;2022-07-23T07:33:46;12.95;;;8.23;;
53062;SDS011;40529;52.172;10.548;2022-07-23T07:36:12;13.43;;;8.15;;
53062;SDS011;40529;52.172;10.548;2022-07-23T07:38:38;13.32;;;8.60;;
53062;SDS011;40529;52.172;10.548;2022-07-23T07:41:04;8.60;;;6.75;;
53062;SDS011;40529;52.172;10.548;2022-07-23T07:43:30;14.75;;;8.13;;
53062;SDS011;40529;52.172;10.548;2022-07-23T07:45:56;9.52;;;7.88;;
53062;SDS011;40529;52.172;10.548;2022-07-23T07:48:22;12.35;;;7.25;;
53062;SDS011;40529;52.172;10.548;2022-07-23T07:50:48;8.77;;;6.78;;
53062;SDS011;40529;52.172;10.548;2022-07-23T07:53:14;11.10;;;9.10;;
53062;SDS011;40529;52.172;10.548;2022-07-23T07:55:40;10.52;;;7.68;;
53062;SDS011;40529;52.172;10.548;2022-07-23T07:58:06;12.23;;;9.10;;
53062;SDS011;40529;52.172;10.548;2022-07-23T08:00:32;9.05;;;7.60;;
53062;SDS011;40529;52.172;10.548;2022-07-23T08:02:59;9.68;;;6.95;;
53062;SDS011;40529;52.172;10.548;2022-07-23T08:05:26;10.38;;;6.97;;
53062;SDS011;40529;52.172;10.548;2022-07-23T08:07:52;11.27;;;6.55;;
53062;SDS011;40529;52.172;10.548;2022-07-23T08:10:18;10.23;;;6.70;;
53062;SDS011;40529;52.172;10.548;2022-07-23T08:12:45;11.30;;;6.63;;
53062;SDS011;40529;52.172;10.548;2022-07-23T08:15:12;6.63;;;5.60;;
53062;SDS011;40529;52.172;10.548;2022-07-23T08:17:38;8.77;;;5.65;;
53062;SDS011;40529;52.172;10.548;2022-07-23T08:20:05;9.05;;;4.93;;
53062;SDS011;40529;52.172;10.548;2022-07-23T08:22:48;8.85;;;5.90;;
53062;SDS011;40529;52.172;10.548;2022-07-23T08:25:15;6.63;;;4.90;;
53062;SDS011;40529;52.172;10.548;2022-07-23T08:27:41;8.57;;;5.13;;
53062;SDS011;40529;52.172;10.548;2022-07-23T08:30:07;6.93;;;4.70;;
53062;SDS011;40529;52.172;10.548;2022-07-23T08:32:47;6.88;;;4.50;;
53062;SDS011;40529;52.172;10.548;2022-07-23T08:35:13;5.63;;;4.82;;
53062;SDS011;40529;52.172;10.548;2022-07-23T08:37:39;5.80;;;4.53;;
53062;SDS011;40529;52.172;10.548;2022-07-23T08:40:05;7.15;;;3.50;;
53062;SDS011;40529;52.172;10.548;2022-07-23T08:42:32;7.70;;;4.00;;
53062;SDS011;40529;52.172;10.548;2022-07-23T08:45:00;6.03;;;4.53;;
53062;SDS011;40529;52.172;10.548;2022-07-23T08:47:26;5.93;;;4.20;;
53062;SDS011;40529;52.172;10.548;2022-07-23T08:49:52;5.82;;;3.95;;
53062;SDS011;40529;52.172;10.548;2022-07-23T08:52:18;9.13;;;4.40;;
53062;SDS011;40529;52.172;10.548;2022-07-23T08:54:44;5.03;;;3.53;;
53062;SDS011;40529;52.172;10.548;2022-07-23T08:57:10;7.05;;;3.50;;
53062;SDS011;40529;52.172;10.548;2022-07-23T08:59:36;6.78;;;3.85;;
53062;SDS011;40529;52.172;10.548;2022-07-23T09:02:02;6.03;;;3.55;;
53062;SDS011;40529;52.172;10.548;2022-07-23T09:04:28;8.35;;;3.90;;
53062;SDS011;40529;52.172;10.548;2022-07-23T09:06:56;4.85;;;3.35;;
53062;SDS011;40529;52.172;10.548;2022-07-23T09:09:22;4.15;;;3.38;;
53062;SDS011;40529;52.172;10.548;2022-07-23T09:14:42;5.85;;;3.60;;
53062;SDS011;40529;52.172;10.548;2022-07-23T09:17:13;5.05;;;3.47;;
53062;SDS011;40529;52.172;10.548;2022-07-23T09:19:39;6.78;;;4.00;;
53062;SDS011;40529;52.172;10.548;2022-07-23T09:22:25;7.15;;;3.90;;
53062;SDS011;40529;52.172;10.548;2022-07-23T09:25:05;5.38;;;4.15;;
53062;SDS011;40529;52.172;10.548;2022-07-23T09:30:17;6.88;;;4.53;;
53062;SDS011;40529;52.172;10.548;2022-07-23T09:32:43;6.07;;;4.72;;
53062;SDS011;40529;52.172;10.548;2022-07-23T09:35:09;5.72;;;4.97;;
53062;SDS011;40529;52.172;10.548;2022-07-23T09:37:35;8.73;;;4.80;;
53062;SDS011;40529;52.172;10.548;2022-07-23T09:40:08;7.57;;;4.55;;
53062;SDS011;40529;52.172;10.548;2022-07-23T09:42:36;5.60;;;5.07;;
53062;SDS011;40529;52.172;10.548;2022-07-23T09:45:03;6.97;;;5.47;;
53062;SDS011;40529;52.172;10.548;2022-07-23T09:47:30;6.13;;;5.53;;
53062;SDS011;40529;52.172;10.548;2022-07-23T09:50:03;5.95;;;4.93;;
53062;SDS011;40529;52.172;10.548;2022-07-23T09:52:52;6.60;;;5.00;;
53062;SDS011;40529;52.172;10.548;2022-07-23T09:55:17;6.55;;;4.82;;
53062;SDS011;40529;52.172;10.548;2022-07-23T09:57:43;7.82;;;4.50;;
53062;SDS011;40529;52.172;10.548;2022-07-23T10:00:10;6.72;;;4.50;;
53062;SDS011;40529;52.172;10.548;2022-07-23T10:02:37;5.80;;;3.50;;
53062;SDS011;40529;52.172;10.548;2022-07-23T10:05:03;4.70;;;3.78;;
53062;SDS011;40529;52.172;10.548;2022-07-23T10:07:34;3.90;;;3.58;;
53062;SDS011;40529;52.172;10.548;2022-07-23T10:10:01;3.90;;;2.95;;
53062;SDS011;40529;52.172;10.548;2022-07-23T10:12:27;4.90;;;2.50;;
53062;SDS011;40529;52.172;10.548;2022-07-23T10:15:13;4.97;;;2.53;;
53062;SDS011;40529;52.172;10.548;2022-07-23T10:17:39;2.83;;;2.17;;
53062;SDS011;40529;52.172;10.548;2022-07-23T10:20:06;5.10;;;2.15;;
53062;SDS011;40529;52.172;10.548;2022-07-23T10:22:37;6.28;;;1.80;;
53062;SDS011;40529;52.172;10.548;2022-07-23T10:25:12;3.00;;;1.88;;
53062;SDS011;40529;52.172;10.548;2022-07-23T10:30:08;3.92;;;2.25;;
53062;SDS011;40529;52.172;10.548;2022-07-23T10:37:49;4.45;;;1.60;;
53062;SDS011;40529;52.172;10.548;2022-07-23T10:40:20;3.15;;;1.52;;
53062;SDS011;40529;52.172;10.548;2022-07-23T10:42:49;4.30;;;1.80;;
53062;SDS011;40529;52.172;10.548;2022-07-23T10:45:35;3.10;;;1.67;;
53062;SDS011;40529;52.172;10.548;2022-07-23T10:48:12;3.30;;;1.83;;
53062;SDS011;40529;52.172;10.548;2022-07-23T10:50:39;2.72;;;1.80;;
53062;SDS011;40529;52.172;10.548;2022-07-23T10:57:58;3.58;;;1.30;;
53062;SDS011;40529;52.172;10.548;2022-07-23T11:00:24;2.00;;;1.02;;
53062;SDS011;40529;52.172;10.548;2022-07-23T11:02:51;2.30;;;0.93;;
53062;SDS011;40529;52.172;10.548;2022-07-23T11:05:19;3.03;;;1.30;;
53062;SDS011;40529;52.172;10.548;2022-07-23T11:24:08;2.40;;;1.15;;
53062;SDS011;40529;52.172;10.548;2022-07-23T11:31:59;4.50;;;1.10;;
53062;SDS011;40529;52.172;10.548;2022-07-23T11:37:02;1.60;;;1.30;;
53062;SDS011;40529;52.172;10.548;2022-07-23T11:39:28;2.35;;;1.00;;
53062;SDS011;40529;52.172;10.548;2022-07-23T11:41:55;1.80;;;1.40;;
53062;SDS011;40529;52.172;10.548;2022-07-23T11:44:28;5.93;;;1.33;;
53062;SDS011;40529;52.172;10.548;2022-07-23T11:47:04;5.05;;;1.40;;
53062;SDS011;40529;52.172;10.548;2022-07-23T11:49:31;2.72;;;1.00;;
53062;SDS011;40529;52.172;10.548;2022-07-23T11:52:04;1.55;;;1.10;;
53062;SDS011;40529;52.172;10.548;2022-07-23T11:54:31;2.60;;;0.93;;
53062;SDS011;40529;52.172;10.548;2022-07-23T11:56:57;2.65;;;1.30;;
53062;SDS011;40529;52.172;10.548;2022-07-23T11:59:24;2.30;;;1.60;;
53062;SDS011;40529;52.172;10.548;2022-07-23T12:01:58;3.33;;;1.30;;
53062;SDS011;40529;52.172;10.548;2022-07-23T12:04:37;2.83;;;1.27;;
53062;SDS011;40529;52.172;10.548;2022-07-23T12:09:30;3.17;;;1.10;;
53062;SDS011;40529;52.172;10.548;2022-07-23T12:11:56;2.50;;;1.40;;
53062;SDS011;40529;52.172;10.548;2022-07-23T12:14:23;3.72;;;1.30;;
53062;SDS011;40529;52.172;10.548;2022-07-23T12:17:06;1.67;;;1.20;;
53062;SDS011;40529;52.172;10.548;2022-07-23T12:19:32;1.58;;;1.13;;
53062;SDS011;40529;52.172;10.548;2022-07-23T12:21:58;1.13;;;1.00;;
53062;SDS011;40529;52.172;10.548;2022-07-23T12:24:24;1.88;;;1.08;;
53062;SDS011;40529;52.172;10.548;2022-07-23T12:27:12;2.22;;;1.00;;
53062;SDS011;40529;52.172;10.548;2022-07-23T12:29:39;2.60;;;1.17;;
53062;SDS011;40529;52.172;10.548;2022-07-23T12:32:24;2.78;;;1.27;;
53062;SDS011;40529;52.172;10.548;2022-07-23T12:35:02;2.88;;;1.00;;
53062;SDS011;40529;52.172;10.548;2022-07-23T12:37:30;2.80;;;1.08;;
53062;SDS011;40529;52.172;10.548;2022-07-23T12:39:56;3.05;;;1.10;;
53062;SDS011;40529;52.172;10.548;2022-07-23T12:42:22;1.98;;;0.90;;
53062;SDS011;40529;52.172;10.548;2022-07-23T12:47:30;5.55;;;1.30;;
53062;SDS011;40529;52.172;10.548;2022-07-23T12:53:58;1.73;;;0.90;;
53062;SDS011;40529;52.172;10.548;2022-07-23T12:55:57;2.63;;;1.23;;
53062;SDS011;40529;52.172;10.548;2022-07-23T12:58:24;2.92;;;1.17;;
53062;SDS011;40529;52.172;10.548;2022-07-23T13:00:54;3.25;;;1.20;;
53062;SDS011;40529;52.172;10.548;2022-07-23T13:03:24;2.08;;;1.20;;
53062;SDS011;40529;52.172;10.548;2022-07-23T13:05:50;2.00;;;1.10;;
53062;SDS011;40529;52.172;10.548;2022-07-23T13:08:16;1.90;;;1.00;;
53062;SDS011;40529;52.172;10.548;2022-07-23T13:10:42;2.15;;;0.93;;
53062;SDS011;40529;52.172;10.548;2022-07-23T13:13:09;2.58;;;1.13;;
53062;SDS011;40529;52.172;10.548;2022-07-23T13:15:35;3.20;;;1.42;;
53062;SDS011;40529;52.172;10.548;2022-07-23T13:18:01;1.60;;;1.08;;
53062;SDS011;40529;52.172;10.548;2022-07-23T13:20:27;2.47;;;1.38;;
53062;SDS011;40529;52.172;10.548;2022-07-23T13:22:53;1.35;;;1.00;;
53062;SDS011;40529;52.172;10.548;2022-07-23T13:25:19;2.75;;;1.13;;
53062;SDS011;40529;52.172;10.548;2022-07-23T13:27:45;4.68;;;1.20;;
53062;SDS011;40529;52.172;10.548;2022-07-23T13:30:11;2.42;;;1.00;;
53062;SDS011;40529;52.172;10.548;2022-07-23T13:32:37;1.65;;;0.90;;
53062;SDS011;40529;52.172;10.548;2022-07-23T13:35:03;5.88;;;1.15;;
53062;SDS011;40529;52.172;10.548;2022-07-23T13:37:29;2.10;;;1.20;;
53062;SDS011;40529;52.172;10.548;2022-07-23T13:39:55;1.67;;;0.90;;
53062;SDS011;40529;52.172;10.548;2022-07-23T13:42:21;1.75;;;0.80;;
53062;SDS011;40529;52.172;10.548;2022-07-23T13:44:47;2.20;;;0.93;;
53062;SDS011;40529;52.172;10.548;2022-07-23T13:47:13;5.43;;;1.02;;
53062;SDS011;40529;52.172;10.548;2022-07-23T13:49:39;2.55;;;1.20;;
53062;SDS011;40529;52.172;10.548;2022-07-23T13:52:05;3.92;;;0.77;;
53062;SDS011;40529;52.172;10.548;2022-07-23T13:54:31;1.55;;;0.95;;
53062;SDS011;40529;52.172;10.548;2022-07-23T13:56:57;2.65;;;0.70;;
53062;SDS011;40529;52.172;10.548;2022-07-23T13:59:23;1.00;;;0.80;;
53062;SDS011;40529;52.172;10.548;2022-07-23T14:01:49;4.28;;;0.82;;
53062;SDS011;40529;52.172;10.548;2022-07-23T14:04:15;5.20;;;1.00;;
53062;SDS011;40529;52.172;10.548;2022-07-23T14:06:41;2.70;;;0.80;;
53062;SDS011;40529;52.172;10.548;2022-07-23T14:09:07;1.70;;;0.80;;
53062;SDS011;40529;52.172;10.548;2022-07-23T14:11:33;2.67;;;0.80;;
53062;SDS011;40529;52.172;10.548;2022-07-23T14:13:59;4.05;;;0.75;;
53062;SDS011;40529;52.172;10.548;2022-07-23T14:16:25;3.72;;;0.70;;
53062;SDS011;40529;52.172;10.548;2022-07-23T14:18:51;1.52;;;0.65;;
53062;SDS011;40529;52.172;10.548;2022-07-23T14:21:18;1.08;;;0.65;;
53062;SDS011;40529;52.172;10.548;2022-07-23T14:23:44;2.50;;;0.70;;
53062;SDS011;40529;52.172;10.548;2022-07-23T14:26:09;2.08;;;0.73;;
53062;SDS011;40529;52.172;10.548;2022-07-23T14:28:35;3.50;;;0.82;;
53062;SDS011;40529;52.172;10.548;2022-07-23T14:31:02;5.82;;;1.00;;
53062;SDS011;40529;52.172;10.548;2022-07-23T14:33:28;1.15;;;0.88;;
53062;SDS011;40529;52.172;10.548;2022-07-23T14:35:54;2.38;;;0.82;;
53062;SDS011;40529;52.172;10.548;2022-07-23T14:38:20;1.55;;;0.70;;
53062;SDS011;40529;52.172;10.548;2022-07-23T14:40:46;2.78;;;0.93;;
53062;SDS011;40529;52.172;10.548;2022-07-23T14:43:12;7.88;;;1.05;;
53062;SDS011;40529;52.172;10.548;2022-07-23T14:45:38;2.72;;;0.90;;
53062;SDS011;40529;52.172;10.548;2022-07-23T14:48:04;2.03;;;0.70;;
53062;SDS011;40529;52.172;10.548;2022-07-23T14:50:30;3.17;;;0.73;;
53062;SDS011;40529;52.172;10.548;2022-07-23T14:52:56;4.50;;;0.90;;
53062;SDS011;40529;52.172;10.548;2022-07-23T14:55:22;1.92;;;0.77;;
53062;SDS011;40529;52.172;10.548;2022-07-23T14:57:48;3.65;;;0.80;;
53062;SDS011;40529;52.172;10.548;2022-07-23T15:00:14;4.75;;;0.80;;
53062;SDS011;40529;52.172;10.548;2022-07-23T15:02:40;5.78;;;0.70;;
53062;SDS011;40529;52.172;10.548;2022-07-23T15:05:06;2.17;;;0.73;;
53062;SDS011;40529;52.172;10.548;2022-07-23T15:07:32;3.15;;;0.82;;
53062;SDS011;40529;52.172;10.548;2022-07-23T15:09:58;2.80;;;0.60;;
53062;SDS011;40529;52.172;10.548;2022-07-23T15:12:25;2.97;;;0.90;;
53062;SDS011;40529;52.172;10.548;2022-07-23T15:14:51;1.98;;;0.65;;
53062;SDS011;40529;52.172;10.548;2022-07-23T15:17:17;2.38;;;0.70;;